Time;durP1;ratioP1;P1;durP2;ratioP2;P2;SDS_P1;SDS_P2;PMS_P1;PMS_P2;Temp;Humidity;BMP_temperature;BMP_pressure;BME280_temperature;BME280_humidity;BME280_pressure;Samples;Min_cycle;Max_cycle;Signal;HPM_P1;HPM_P2
2023/06/02 00:00:50;;;;;;;10.73;6.53;;;12.20;99.90;;;;;;4997788;28;20216;-85
2023/06/02 00:03:18;;;;;;;11.13;6.65;;;12.10;99.90;;;;;;4999007;28;20176;-86
2023/06/02 00:05:49;;;;;;;7.53;5.95;;;12.10;99.90;;;;;;4997925;28;20267;-85
2023/06/02 00:08:17;;;;;;;9.75;6.25;;;12.10;99.90;;;;;;5001063;28;20307;-85
2023/06/02 00:10:43;;;;;;;10.57;6.25;;;12.00;99.90;;;;;;5000965;28;20193;-85
2023/06/02 00:13:09;;;;;;;13.80;6.60;;;12.00;99.90;;;;;;5002348;28;20181;-85
2023/06/02 00:15:35;;;;;;;13.38;6.80;;;12.00;99.90;;;;;;5005165;28;20228;-85
2023/06/02 00:18:01;;;;;;;10.82;6.63;;;12.00;99.90;;;;;;5004431;28;20209;-85
2023/06/02 00:20:27;;;;;;;8.98;6.65;;;12.00;99.90;;;;;;5004435;28;20177;-85
2023/06/02 00:22:54;;;;;;;12.88;6.53;;;12.00;99.90;;;;;;5004600;28;20530;-85
2023/06/02 00:25:20;;;;;;;10.27;6.80;;;12.00;99.90;;;;;;5004899;28;20188;-85
2023/06/02 00:27:45;;;;;;;10.55;6.43;;;11.90;99.90;;;;;;5004176;28;20190;-85
2023/06/02 00:30:12;;;;;;;10.38;6.18;;;11.90;99.90;;;;;;5005362;28;20650;-85
2023/06/02 00:32:38;;;;;;;11.90;6.20;;;11.90;99.90;;;;;;5005185;28;20279;-85
2023/06/02 00:35:04;;;;;;;9.20;5.97;;;11.90;99.90;;;;;;5005590;28;20294;-85
2023/06/02 00:37:30;;;;;;;8.15;5.80;;;11.90;99.90;;;;;;4999840;28;20201;-85
2023/06/02 00:39:55;;;;;;;9.00;6.45;;;11.90;99.90;;;;;;4998725;28;20187;-84
2023/06/02 00:42:21;;;;;;;14.45;6.68;;;11.90;99.90;;;;;;5001024;28;20180;-84
2023/06/02 00:44:47;;;;;;;12.32;6.00;;;11.90;99.90;;;;;;5002068;28;20679;-84
2023/06/02 00:47:13;;;;;;;10.38;6.50;;;11.90;99.90;;;;;;5002025;28;20236;-85
2023/06/02 00:49:42;;;;;;;14.05;6.40;;;11.90;99.90;;;;;;5003282;28;20212;-85
2023/06/02 00:52:08;;;;;;;8.70;6.57;;;11.80;99.90;;;;;;5004373;28;20161;-85
2023/06/02 00:54:35;;;;;;;14.23;6.70;;;11.80;99.90;;;;;;5003694;28;20220;-85
2023/06/02 00:57:01;;;;;;;10.02;6.53;;;11.80;99.90;;;;;;5004078;28;20211;-85
2023/06/02 00:59:27;;;;;;;12.00;6.60;;;11.80;99.90;;;;;;5004329;28;20207;-85
2023/06/02 01:01:54;;;;;;;9.30;5.80;;;11.80;99.90;;;;;;5003322;28;20184;-85
2023/06/02 01:04:21;;;;;;;8.88;6.40;;;11.70;99.90;;;;;;5004031;28;20219;-85
2023/06/02 01:06:48;;;;;;;10.82;6.20;;;11.70;99.90;;;;;;5005645;28;20264;-85
2023/06/02 01:09:16;;;;;;;10.05;6.05;;;11.70;99.90;;;;;;5003398;28;20612;-85
2023/06/02 01:11:47;;;;;;;12.80;6.15;;;11.70;99.90;;;;;;5005593;28;20191;-85
2023/06/02 01:14:13;;;;;;;10.93;6.53;;;11.70;99.90;;;;;;5005476;28;20181;-85
2023/06/02 01:16:39;;;;;;;15.40;5.93;;;11.70;99.90;;;;;;5003026;28;20211;-85
2023/06/02 01:19:13;;;;;;;7.45;5.63;;;11.70;99.90;;;;;;5003363;28;20192;-85
2023/06/02 01:21:40;;;;;;;9.30;6.20;;;11.70;99.90;;;;;;5002013;28;20181;-85
2023/06/02 01:24:06;;;;;;;9.65;5.88;;;11.70;99.90;;;;;;5001379;28;20184;-85
2023/06/02 01:26:34;;;;;;;9.98;5.80;;;11.60;99.90;;;;;;5002368;28;20243;-84
2023/06/02 01:29:04;;;;;;;10.77;5.25;;;11.60;99.90;;;;;;5003733;28;20582;-85
2023/06/02 01:31:36;;;;;;;11.10;5.50;;;11.60;99.90;;;;;;5001809;28;20181;-82
2023/06/02 01:34:02;;;;;;;9.68;5.63;;;11.50;99.90;;;;;;4999762;28;20655;-84
2023/06/02 01:36:29;;;;;;;13.73;6.00;;;11.40;99.90;;;;;;5001540;28;20263;-85
2023/06/02 01:38:57;;;;;;;11.40;5.55;;;11.40;99.90;;;;;;5000762;28;20177;-85
2023/06/02 01:41:27;;;;;;;12.60;5.90;;;11.40;99.90;;;;;;5000378;28;20208;-85
2023/06/02 01:43:55;;;;;;;11.00;5.88;;;11.40;99.90;;;;;;5001085;28;20157;-85
2023/06/02 01:46:23;;;;;;;12.17;6.03;;;11.30;99.90;;;;;;5000612;28;20200;-85
2023/06/02 01:48:53;;;;;;;14.07;6.60;;;11.20;99.90;;;;;;5002594;28;20180;-83
2023/06/02 01:51:19;;;;;;;9.63;6.57;;;11.10;99.90;;;;;;5004432;28;20184;-83
2023/06/02 01:53:45;;;;;;;10.77;6.60;;;11.00;99.90;;;;;;5003929;28;20181;-83
2023/06/02 01:56:11;;;;;;;10.40;6.10;;;11.00;99.90;;;;;;5004503;28;20204;-83
2023/06/02 01:58:37;;;;;;;17.75;6.78;;;10.90;99.90;;;;;;5002638;28;20203;-83
2023/06/02 02:01:04;;;;;;;18.20;6.30;;;10.90;99.90;;;;;;5002890;28;20653;-83
2023/06/02 02:03:30;;;;;;;15.07;6.30;;;11.00;99.90;;;;;;5003359;28;20541;-83
2023/06/02 02:05:56;;;;;;;13.50;5.37;;;11.00;99.90;;;;;;5001853;28;20215;-82
2023/06/02 02:08:22;;;;;;;13.53;6.50;;;11.00;99.90;;;;;;5001383;28;20234;-82
2023/06/02 02:10:48;;;;;;;9.55;6.35;;;10.90;99.90;;;;;;5001379;28;20546;-82
2023/06/02 02:13:14;;;;;;;8.80;5.53;;;10.90;99.90;;;;;;5003507;28;20204;-82
2023/06/02 02:15:40;;;;;;;11.20;6.50;;;10.90;99.90;;;;;;5002200;28;20716;-82
2023/06/02 02:18:06;;;;;;;10.70;5.50;;;10.90;99.90;;;;;;5002798;28;20190;-82
2023/06/02 02:20:32;;;;;;;12.00;5.87;;;10.90;99.90;;;;;;5004298;28;20237;-82
2023/06/02 02:22:58;;;;;;;9.07;5.50;;;10.90;99.90;;;;;;5001675;28;20173;-83
2023/06/02 02:25:24;;;;;;;13.27;6.10;;;10.90;99.90;;;;;;5001681;28;20539;-83
2023/06/02 02:27:50;;;;;;;11.25;5.32;;;10.90;99.90;;;;;;4999868;28;20177;-83
2023/06/02 02:30:16;;;;;;;16.70;6.30;;;10.90;99.90;;;;;;5001336;28;20712;-84
2023/06/02 02:32:43;;;;;;;13.63;5.70;;;10.90;99.90;;;;;;4999694;28;20184;-83
2023/06/02 02:35:09;;;;;;;10.63;5.10;;;10.90;99.90;;;;;;4999470;28;20219;-84
2023/06/02 02:37:36;;;;;;;10.17;5.57;;;10.90;99.90;;;;;;5001366;28;20207;-82
2023/06/02 02:40:03;;;;;;;10.70;5.82;;;10.80;99.90;;;;;;5003484;28;20183;-83
2023/06/02 02:42:29;;;;;;;11.83;5.23;;;10.80;99.90;;;;;;5001972;28;20196;-82
2023/06/02 02:44:55;;;;;;;10.00;5.27;;;10.70;99.90;;;;;;5002363;28;20180;-82
2023/06/02 02:47:20;;;;;;;10.18;5.25;;;10.70;99.90;;;;;;5003532;28;20237;-83
2023/06/02 02:49:47;;;;;;;11.67;4.90;;;10.70;99.90;;;;;;5003819;28;20271;-82
2023/06/02 02:52:12;;;;;;;15.53;5.30;;;10.80;99.90;;;;;;5004887;28;20187;-83
2023/06/02 02:54:38;;;;;;;12.88;5.40;;;10.80;99.90;;;;;;5002570;28;20212;-82
2023/06/02 02:57:07;;;;;;;13.67;4.83;;;10.80;99.90;;;;;;5002341;28;20283;-82
2023/06/02 02:59:36;;;;;;;12.48;5.30;;;10.80;99.90;;;;;;5003453;28;20183;-82
2023/06/02 03:02:06;;;;;;;11.05;4.93;;;10.80;99.90;;;;;;4998649;28;20200;-82
2023/06/02 03:04:34;;;;;;;13.50;6.13;;;10.80;99.90;;;;;;4996676;28;20657;-82
2023/06/02 03:07:04;;;;;;;16.50;5.67;;;10.80;99.90;;;;;;4998044;28;20193;-82
2023/06/02 03:09:30;;;;;;;14.67;4.57;;;10.80;99.90;;;;;;4998115;28;20553;-82
2023/06/02 03:11:57;;;;;;;13.40;5.40;;;10.80;99.90;;;;;;4997932;28;20184;-80
2023/06/02 03:14:24;;;;;;;12.03;4.67;;;10.80;99.90;;;;;;4998725;28;20176;-81
2023/06/02 03:16:50;;;;;;;16.97;4.83;;;10.80;99.90;;;;;;4999360;28;20193;-82
2023/06/02 03:19:16;;;;;;;11.70;5.17;;;10.80;99.90;;;;;;4996328;28;20188;-86
2023/06/02 03:21:42;;;;;;;9.40;4.57;;;10.90;99.90;;;;;;4996169;28;20176;-86
2023/06/02 03:24:18;;;;;;;13.37;5.10;;;10.90;99.90;;;;;;4995725;28;20267;-86
2023/06/02 03:26:45;;;;;;;13.20;5.22;;;10.90;99.90;;;;;;4996970;28;20200;-85
2023/06/02 03:29:12;;;;;;;9.97;4.63;;;10.90;99.90;;;;;;4995269;28;20231;-86
2023/06/02 03:31:38;;;;;;;14.17;4.97;;;10.90;99.90;;;;;;4995623;28;20195;-86
2023/06/02 03:34:06;;;;;;;9.67;4.70;;;10.90;99.90;;;;;;4999891;28;20172;-85
2023/06/02 03:36:35;;;;;;;13.50;4.73;;;10.80;99.90;;;;;;4997180;28;20247;-86
2023/06/02 03:39:04;;;;;;;17.77;5.30;;;10.90;99.90;;;;;;4995236;28;20208;-87
2023/06/02 03:41:30;;;;;;;13.50;5.47;;;10.80;99.90;;;;;;4995617;28;20180;-86
2023/06/02 03:43:56;;;;;;;11.57;5.23;;;10.80;99.90;;;;;;4995522;28;20208;-86
2023/06/02 03:46:22;;;;;;;17.70;5.20;;;10.80;99.90;;;;;;4997067;28;20200;-86
2023/06/02 03:48:47;;;;;;;10.32;5.20;;;10.80;99.90;;;;;;4999159;28;20296;-86
2023/06/02 03:51:13;;;;;;;12.43;5.37;;;10.80;99.90;;;;;;5001952;28;20180;-84
2023/06/02 03:53:39;;;;;;;8.87;4.80;;;10.80;99.90;;;;;;5003732;28;20532;-84
2023/06/02 03:56:05;;;;;;;12.53;4.63;;;10.80;99.90;;;;;;5003253;28;20208;-84
2023/06/02 03:58:31;;;;;;;17.30;5.60;;;10.90;99.90;;;;;;5002392;28;20179;-84
2023/06/02 04:00:58;;;;;;;10.38;4.95;;;10.80;99.90;;;;;;5000663;28;20180;-88
2023/06/02 04:03:24;;;;;;;18.53;4.83;;;10.80;99.90;;;;;;5000073;28;20271;-88
2023/06/02 04:05:49;;;;;;;11.73;5.00;;;10.80;99.90;;;;;;5002344;28;20239;-88
2023/06/02 04:08:16;;;;;;;13.17;5.40;;;10.80;99.90;;;;;;4999976;28;20196;-88
2023/06/02 04:10:43;;;;;;;10.23;5.27;;;10.80;99.90;;;;;;4999820;28;20187;-88
2023/06/02 04:13:09;;;;;;;9.80;4.75;;;10.80;99.90;;;;;;5000061;28;20664;-88
2023/06/02 04:15:34;;;;;;;11.37;5.27;;;10.90;99.90;;;;;;4999622;28;20212;-88
2023/06/02 04:18:00;;;;;;;15.43;5.67;;;10.80;99.90;;;;;;4999456;28;20191;-88
2023/06/02 04:20:26;;;;;;;13.97;5.30;;;10.90;99.90;;;;;;5002664;28;20227;-83
2023/06/02 04:22:51;;;;;;;12.50;5.67;;;10.90;99.90;;;;;;5002995;28;20187;-83
2023/06/02 04:25:17;;;;;;;12.47;5.40;;;10.90;99.90;;;;;;5004236;28;20239;-82
2023/06/02 04:27:43;;;;;;;13.55;5.18;;;10.90;99.90;;;;;;5004376;28;20192;-82
2023/06/02 04:30:09;;;;;;;12.43;5.50;;;10.90;99.90;;;;;;5004473;28;20181;-82
2023/06/02 04:32:35;;;;;;;11.20;5.40;;;11.00;99.90;;;;;;5005695;28;20188;-83
2023/06/02 04:35:02;;;;;;;15.10;6.03;;;11.00;99.90;;;;;;5004426;28;20573;-83
2023/06/02 04:37:28;;;;;;;13.00;6.18;;;11.00;99.90;;;;;;5005785;28;20196;-83
2023/06/02 04:39:55;;;;;;;8.07;5.45;;;11.00;99.90;;;;;;5010779;28;20173;-82
2023/06/02 04:42:21;;;;;;;14.27;6.10;;;10.90;99.90;;;;;;5011622;28;20528;-81
2023/06/02 04:44:48;;;;;;;17.50;6.40;;;10.90;99.90;;;;;;5011334;28;20188;-81
2023/06/02 04:47:14;;;;;;;12.30;5.60;;;10.90;99.90;;;;;;5010744;28;20192;-81
2023/06/02 04:49:40;;;;;;;16.40;6.38;;;10.90;99.90;;;;;;5010022;28;20211;-82
2023/06/02 04:52:07;;;;;;;16.13;6.35;;;10.90;99.90;;;;;;5010700;28;20567;-82
2023/06/02 04:54:33;;;;;;;15.33;6.20;;;10.90;99.90;;;;;;5012274;28;20232;-83
2023/06/02 04:57:00;;;;;;;14.70;5.72;;;10.90;99.90;;;;;;5005245;28;20666;-83
2023/06/02 04:59:27;;;;;;;10.50;5.63;;;11.00;99.90;;;;;;5006474;28;20180;-83
2023/06/02 05:01:52;;;;;;;16.80;5.90;;;10.90;99.90;;;;;;5006327;28;20189;-84
2023/06/02 05:04:19;;;;;;;19.23;6.97;;;10.90;99.90;;;;;;4999519;28;20196;-84
2023/06/02 05:06:45;;;;;;;11.23;5.40;;;10.90;99.90;;;;;;5000544;28;20776;-84
2023/06/02 05:09:12;;;;;;;15.50;6.60;;;10.90;99.90;;;;;;4999764;28;20204;-83
2023/06/02 05:11:37;;;;;;;13.83;6.03;;;10.90;99.90;;;;;;5001006;28;20187;-83
2023/06/02 05:14:03;;;;;;;18.40;5.60;;;10.90;99.90;;;;;;4999617;28;20172;-83
2023/06/02 05:16:30;;;;;;;9.80;5.05;;;10.90;99.90;;;;;;4997587;28;20220;-82
2023/06/02 05:18:56;;;;;;;13.87;5.57;;;10.90;99.90;;;;;;4998247;28;20182;-82
2023/06/02 05:21:22;;;;;;;15.67;6.23;;;11.00;99.90;;;;;;4999974;28;20192;-83
2023/06/02 05:23:47;;;;;;;12.87;6.47;;;11.00;99.90;;;;;;4997906;28;20185;-82
2023/06/02 05:26:13;;;;;;;14.83;5.90;;;10.90;99.90;;;;;;4996874;28;20204;-82
2023/06/02 05:28:39;;;;;;;15.25;5.50;;;10.90;99.90;;;;;;4997498;28;20191;-82
2023/06/02 05:31:05;;;;;;;12.73;5.77;;;10.90;99.90;;;;;;4996612;28;20196;-82
2023/06/02 05:33:30;;;;;;;13.17;6.10;;;10.90;99.90;;;;;;4996672;28;20207;-82
2023/06/02 05:35:56;;;;;;;15.93;6.03;;;11.00;99.90;;;;;;4997808;28;20212;-81
2023/06/02 05:38:22;;;;;;;12.00;6.13;;;11.00;99.90;;;;;;4997935;28;20181;-82
2023/06/02 05:40:47;;;;;;;15.10;6.20;;;11.10;99.90;;;;;;4998539;28;20182;-82
2023/06/02 05:43:13;;;;;;;22.77;6.78;;;11.00;99.90;;;;;;4997759;28;20731;-82
2023/06/02 05:45:39;;;;;;;14.30;6.20;;;11.00;99.90;;;;;;4998715;28;20275;-82
2023/06/02 05:48:04;;;;;;;13.47;5.77;;;10.90;99.90;;;;;;4996837;28;20622;-82
2023/06/02 05:50:30;;;;;;;11.57;6.07;;;11.00;99.90;;;;;;4997430;28;20227;-81
2023/06/02 05:52:56;;;;;;;20.15;6.15;;;11.10;99.90;;;;;;4997129;28;20185;-81
2023/06/02 05:55:22;;;;;;;14.77;6.18;;;11.10;99.90;;;;;;4996150;28;20215;-84
2023/06/02 05:57:47;;;;;;;16.03;6.00;;;11.00;99.90;;;;;;4997080;28;20640;-84
2023/06/02 06:00:14;;;;;;;18.27;6.93;;;10.90;99.90;;;;;;4995868;28;20180;-84
2023/06/02 06:02:39;;;;;;;11.17;5.60;;;10.90;99.90;;;;;;4996698;28;20220;-82
2023/06/02 06:05:06;;;;;;;13.17;6.03;;;10.90;99.90;;;;;;4996015;28;20208;-82
2023/06/02 06:07:31;;;;;;;13.83;6.13;;;10.90;99.90;;;;;;4996453;28;20215;-82
2023/06/02 06:09:57;;;;;;;14.50;6.43;;;10.90;99.90;;;;;;4994477;28;20181;-82
2023/06/02 06:12:23;;;;;;;17.80;6.53;;;11.00;99.90;;;;;;4995869;28;20180;-81
2023/06/02 06:14:49;;;;;;;12.80;6.40;;;11.00;99.90;;;;;;4994742;28;20208;-81
2023/06/02 06:17:14;;;;;;;15.93;6.20;;;11.00;99.90;;;;;;4996220;28;20210;-81
2023/06/02 06:19:40;;;;;;;16.73;5.37;;;11.00;99.90;;;;;;4996222;28;20177;-82
2023/06/02 06:22:06;;;;;;;11.87;5.57;;;11.10;99.90;;;;;;4994760;28;20219;-82
2023/06/02 06:24:31;;;;;;;10.40;5.73;;;11.10;99.90;;;;;;4996034;28;20180;-82
2023/06/02 06:26:57;;;;;;;13.47;5.43;;;11.20;99.90;;;;;;4996325;28;20203;-82
2023/06/02 06:29:23;;;;;;;13.67;5.90;;;11.20;99.90;;;;;;4995189;28;20177;-83
2023/06/02 06:31:48;;;;;;;14.40;5.70;;;11.30;99.90;;;;;;4996759;28;20172;-83
2023/06/02 06:34:15;;;;;;;12.27;6.13;;;11.30;99.90;;;;;;4995281;28;20181;-83
2023/06/02 06:36:40;;;;;;;12.17;5.47;;;11.30;99.90;;;;;;4996388;28;20204;-84
2023/06/02 06:39:06;;;;;;;15.07;5.60;;;11.20;99.90;;;;;;4995648;28;20255;-83
2023/06/02 06:41:32;;;;;;;13.73;6.10;;;11.20;99.90;;;;;;4995116;28;20184;-84
2023/06/02 06:43:58;;;;;;;15.50;5.40;;;11.20;99.90;;;;;;4996376;28;20177;-84
2023/06/02 06:46:23;;;;;;;11.13;5.30;;;11.20;99.90;;;;;;4994774;28;20200;-83
2023/06/02 06:48:50;;;;;;;15.30;6.37;;;11.20;99.90;;;;;;4996108;28;20262;-83
2023/06/02 06:51:16;;;;;;;15.17;5.70;;;11.30;99.90;;;;;;4997003;28;20172;-83
2023/06/02 06:53:42;;;;;;;12.53;5.80;;;11.40;99.90;;;;;;4999496;28;20183;-83
2023/06/02 06:56:09;;;;;;;20.97;5.83;;;11.30;99.90;;;;;;4997133;28;20212;-81
2023/06/02 06:58:34;;;;;;;15.13;5.97;;;11.40;99.90;;;;;;4996267;28;20652;-81
2023/06/02 07:01:00;;;;;;;11.60;5.77;;;11.40;99.90;;;;;;4996317;28;20176;-81
2023/06/02 07:03:26;;;;;;;8.67;5.50;;;11.50;99.90;;;;;;4995986;28;20685;-82
2023/06/02 07:05:52;;;;;;;12.73;5.83;;;11.50;99.90;;;;;;4994389;28;20251;-82
2023/06/02 07:08:17;;;;;;;15.87;6.10;;;11.60;99.90;;;;;;4994838;28;20181;-82
2023/06/02 07:10:43;;;;;;;12.60;6.47;;;11.50;99.90;;;;;;4994543;28;20264;-82
2023/06/02 07:13:09;;;;;;;12.47;5.73;;;11.40;99.90;;;;;;4996293;28;20183;-83
2023/06/02 07:15:36;;;;;;;16.67;6.20;;;11.40;99.90;;;;;;4996231;28;20207;-83
2023/06/02 07:18:02;;;;;;;14.40;6.22;;;11.50;99.90;;;;;;4994735;28;20168;-86
2023/06/02 07:20:28;;;;;;;8.98;5.35;;;11.60;99.90;;;;;;4993732;28;20177;-86
2023/06/02 07:22:53;;;;;;;13.53;6.03;;;11.70;99.90;;;;;;4992659;28;20172;-86
2023/06/02 07:25:19;;;;;;;16.77;5.55;;;11.70;99.90;;;;;;4994403;28;20574;-82
2023/06/02 07:27:45;;;;;;;11.05;6.00;;;11.80;99.90;;;;;;4994244;28;20271;-82
2023/06/02 07:30:11;;;;;;;14.57;6.22;;;11.80;99.90;;;;;;4994351;28;20184;-82
2023/06/02 07:32:37;;;;;;;13.85;6.35;;;11.90;99.90;;;;;;4995990;28;20173;-82
2023/06/02 07:35:03;;;;;;;12.80;6.53;;;12.00;99.90;;;;;;4995844;28;20657;-82
2023/06/02 07:37:29;;;;;;;12.32;6.18;;;12.00;99.90;;;;;;4994906;28;20267;-82
2023/06/02 07:39:54;;;;;;;16.30;5.70;;;12.10;99.90;;;;;;4994478;28;20179;-81
2023/06/02 07:42:21;;;;;;;12.93;5.95;;;12.00;99.90;;;;;;4994010;28;20275;-82
2023/06/02 07:44:47;;;;;;;16.65;6.03;;;12.10;99.90;;;;;;4995403;28;20168;-82
2023/06/02 07:47:14;;;;;;;14.82;5.97;;;12.10;99.90;;;;;;4993732;28;20747;-82
2023/06/02 07:49:40;;;;;;;17.73;6.65;;;12.20;99.90;;;;;;4993877;28;20187;-83
2023/06/02 07:52:06;;;;;;;13.30;5.70;;;12.40;99.90;;;;;;4993691;28;20653;-81
2023/06/02 07:54:32;;;;;;;11.95;5.97;;;12.50;99.90;;;;;;4994473;28;20164;-82
2023/06/02 07:56:57;;;;;;;11.15;5.35;;;12.50;99.90;;;;;;4995298;28;20616;-85
2023/06/02 07:59:23;;;;;;;16.83;6.25;;;12.60;99.90;;;;;;4993883;28;20164;-84
2023/06/02 08:01:49;;;;;;;9.88;5.38;;;12.50;99.90;;;;;;4994075;28;20596;-83
2023/06/02 08:04:15;;;;;;;16.27;5.82;;;12.40;99.90;;;;;;4995253;28;20518;-83
2023/06/02 08:06:41;;;;;;;10.52;5.40;;;12.40;99.90;;;;;;4993628;28;20291;-82
2023/06/02 08:09:06;;;;;;;13.60;6.13;;;12.50;99.90;;;;;;4995086;28;20168;-83
2023/06/02 08:11:32;;;;;;;17.80;6.15;;;12.60;99.90;;;;;;4995241;28;20169;-82
2023/06/02 08:13:58;;;;;;;11.63;5.68;;;12.70;99.90;;;;;;4993492;28;20181;-81
2023/06/02 08:16:24;;;;;;;11.43;5.18;;;12.80;99.90;;;;;;4994353;28;20212;-81
2023/06/02 08:18:50;;;;;;;10.30;4.80;;;12.90;99.90;;;;;;4994554;28;20177;-81
2023/06/02 08:21:16;;;;;;;15.75;5.93;;;13.10;99.90;;;;;;4993236;28;20184;-82
2023/06/02 08:23:42;;;;;;;15.18;6.47;;;13.20;99.90;;;;;;4992966;28;20177;-81
2023/06/02 08:26:07;;;;;;;13.00;5.80;;;13.10;99.90;;;;;;4995531;28;20200;-81
2023/06/02 08:28:33;;;;;;;14.23;5.88;;;13.10;99.90;;;;;;4993419;28;20185;-81
2023/06/02 08:31:01;;;;;;;12.75;5.43;;;13.20;99.90;;;;;;4993540;28;20184;-81
2023/06/02 08:33:27;;;;;;;11.93;5.32;;;13.40;99.90;;;;;;4994127;28;20664;-81
2023/06/02 08:35:53;;;;;;;12.55;5.85;;;13.50;99.90;;;;;;4997808;28;20212;-81
2023/06/02 08:38:20;;;;;;;14.00;6.75;;;13.60;99.90;;;;;;4997679;28;20177;-81
2023/06/02 08:40:47;;;;;;;17.15;5.70;;;13.80;99.90;;;;;;4997173;28;20169;-81
2023/06/02 08:43:14;;;;;;;12.50;5.30;;;14.00;99.90;;;;;;4998236;28;20177;-81
2023/06/02 08:45:41;;;;;;;12.45;5.38;;;14.40;99.90;;;;;;4997130;28;20291;-81
2023/06/02 08:48:11;;;;;;;11.77;5.20;;;14.80;99.90;;;;;;4998695;28;20200;-81
2023/06/02 08:50:41;;;;;;;12.45;5.40;;;14.80;99.90;;;;;;4998562;28;20607;-83
2023/06/02 08:53:13;;;;;;;10.60;5.78;;;14.80;99.90;;;;;;4997443;28;20193;-82
2023/06/02 08:55:41;;;;;;;11.88;5.82;;;15.00;99.90;;;;;;4998791;28;20207;-82
2023/06/02 08:58:11;;;;;;;18.10;5.50;;;15.00;99.90;;;;;;4997431;28;20284;-82
2023/06/02 09:00:40;;;;;;;15.90;5.80;;;15.20;99.90;;;;;;4998601;28;20169;-82
2023/06/02 09:03:06;;;;;;;13.68;5.45;;;15.20;99.90;;;;;;4997469;28;20184;-82
2023/06/02 09:05:32;;;;;;;15.20;6.20;;;15.20;99.90;;;;;;4997085;28;20227;-83
2023/06/02 09:08:14;;;;;;;12.15;5.57;;;15.40;99.90;;;;;;4997435;28;20188;-83
2023/06/02 09:10:41;;;;;;;15.60;5.55;;;15.60;99.90;;;;;;4998814;28;20656;-83
2023/06/02 09:13:30;;;;;;;12.90;6.30;;;15.70;79.00;;;;;;4998456;28;20179;-83
2023/06/02 09:15:58;;;;;;;14.07;6.50;;;15.80;99.90;;;;;;4997047;28;20220;-82
2023/06/02 09:18:24;;;;;;;13.70;6.32;;;16.10;99.90;;;;;;4999031;28;20161;-83
2023/06/02 09:20:50;;;;;;;15.20;6.47;;;16.10;99.90;;;;;;4996876;28;20184;-82
2023/06/02 09:23:16;;;;;;;15.50;5.97;;;16.40;1.00;;;;;;4996859;28;20260;-83
2023/06/02 09:25:43;;;;;;;15.13;6.10;;;16.50;1.00;;;;;;4998646;28;20630;-83
2023/06/02 09:28:09;;;;;;;11.50;6.20;;;16.30;99.90;;;;;;4998607;28;20203;-83
2023/06/02 09:30:35;;;;;;;14.77;6.00;;;16.00;1.00;;;;;;4998277;28;20589;-83
2023/06/02 09:33:07;;;;;;;14.10;5.97;;;15.90;99.90;;;;;;4998897;28;20165;-83
2023/06/02 09:35:36;;;;;;;21.70;6.65;;;16.20;99.90;;;;;;4998458;28;20279;-83
2023/06/02 09:38:07;;;;;;;11.77;6.45;;;16.70;99.90;;;;;;4998033;28;20240;-83
2023/06/02 09:40:35;;;;;;;16.52;6.75;;;17.10;1.00;;;;;;4996992;28;20629;-83
2023/06/02 09:43:05;;;;;;;11.90;6.03;;;17.00;99.90;;;;;;4998821;28;20540;-83
2023/06/02 09:45:32;;;;;;;11.45;6.55;;;17.20;1.00;;;;;;4995954;28;20187;-83
2023/06/02 09:47:59;;;;;;;16.50;7.47;;;17.20;1.00;;;;;;4997096;28;20270;-83
2023/06/02 09:50:36;;;;;;;12.70;7.53;;;16.80;1.00;;;;;;4997862;28;20187;-83
2023/06/02 09:53:07;;;;;;;19.17;7.55;;;17.10;99.90;;;;;;4998071;28;20161;-83
2023/06/02 09:55:36;;;;;;;12.43;8.23;;;17.30;99.90;;;;;;4997047;28;20206;-83
2023/06/02 09:58:02;;;;;;;19.38;8.07;;;17.30;1.00;;;;;;4997291;28;20173;-83
2023/06/02 10:00:29;;;;;;;16.13;8.55;;;17.20;32.20;;;;;;4998097;28;20169;-84
2023/06/02 10:02:55;;;;;;;18.10;8.68;;;16.90;1.00;;;;;;4997569;28;20176;-83
2023/06/02 10:05:22;;;;;;;19.88;10.43;;;16.90;34.70;;;;;;4999004;28;20198;-84
2023/06/02 10:08:19;;;;;;;15.57;8.88;;;16.50;19.70;;;;;;5001470;28;20173;-84
2023/06/02 10:11:15;;;;;;;12.48;8.30;;;16.10;99.90;;;;;;4999419;28;20168;-85
2023/06/02 10:14:05;;;;;;;15.70;8.18;;;16.30;99.90;;;;;;4997873;28;20177;-86
2023/06/02 10:16:56;;;;;;;15.88;8.20;;;16.30;99.90;;;;;;4996458;28;20213;-85
2023/06/02 10:20:00;;;;;;;12.43;7.57;;;16.50;99.90;;;;;;4996103;28;20181;-85
2023/06/02 10:22:28;;;;;;;11.23;6.93;;;16.80;99.90;;;;;;4995444;28;20289;-85
2023/06/02 10:25:12;;;;;;;17.83;7.97;;;17.20;99.90;;;;;;4995394;28;20169;-84
2023/06/02 10:27:43;;;;;;;12.50;7.13;;;17.10;99.90;;;;;;4995278;28;20673;-83
2023/06/02 10:30:10;;;;;;;14.93;7.93;;;16.60;99.90;;;;;;4995634;28;20637;-84
2023/06/02 10:32:45;;;;;;;15.57;8.35;;;16.40;99.90;;;;;;4996879;28;20183;-84
2023/06/02 10:35:11;;;;;;;17.20;8.38;;;16.40;99.90;;;;;;4995779;28;20203;-85
2023/06/02 10:37:39;;;;;;;14.65;6.97;;;16.30;99.90;;;;;;4996431;28;20188;-85
2023/06/02 10:40:05;;;;;;;12.10;6.68;;;16.60;99.90;;;;;;4994600;28;20544;-85
2023/06/02 10:42:31;;;;;;;15.88;6.85;;;16.90;99.90;;;;;;4996061;28;20175;-85
2023/06/02 10:45:24;;;;;;;11.35;6.70;;;17.10;99.90;;;;;;4995180;28;20263;-86
2023/06/02 10:47:50;;;;;;;11.65;7.10;;;17.00;99.90;;;;;;4995356;28;20165;-84
2023/06/02 10:50:21;;;;;;;15.35;6.72;;;16.80;99.90;;;;;;4996784;28;20184;-85
2023/06/02 10:53:04;;;;;;;12.77;6.28;;;16.70;99.90;;;;;;4995821;28;20180;-86
2023/06/02 10:55:34;;;;;;;11.57;6.10;;;16.70;99.90;;;;;;4995032;28;20203;-85
2023/06/02 10:58:05;;;;;;;15.40;6.30;;;16.50;99.90;;;;;;4997600;28;20716;-85
2023/06/02 11:00:39;;;;;;;13.23;6.10;;;16.60;99.90;;;;;;4995742;28;20253;-85
2023/06/02 11:03:22;;;;;;;9.13;5.78;;;16.70;99.90;;;;;;4996430;28;20153;-86
2023/06/02 11:05:49;;;;;;;13.38;6.20;;;17.00;99.90;;;;;;4996109;28;20282;-86
2023/06/02 11:08:18;;;;;;;13.63;6.82;;;17.30;99.90;;;;;;4995398;28;20184;-83
2023/06/02 11:10:45;;;;;;;11.85;6.60;;;17.60;99.90;;;;;;4996218;28;20172;-83
2023/06/02 11:13:15;;;;;;;13.40;6.43;;;17.90;99.90;;;;;;4996995;28;20207;-85
2023/06/02 11:15:59;;;;;;;10.27;6.10;;;18.20;99.90;;;;;;4994943;28;20212;-86
2023/06/02 11:18:27;;;;;;;17.52;6.00;;;18.50;99.90;;;;;;4995487;28;20539;-85
2023/06/02 11:21:01;;;;;;;12.55;5.72;;;18.30;99.90;;;;;;4995135;28;20176;-86
2023/06/02 11:23:28;;;;;;;14.43;5.97;;;18.40;99.90;;;;;;4994703;28;20160;-86
2023/06/02 11:26:07;;;;;;;12.10;5.50;;;18.50;99.90;;;;;;4994912;28;20567;-85
2023/06/02 11:28:33;;;;;;;13.02;5.32;;;18.60;99.90;;;;;;4995541;28;20176;-86
2023/06/02 11:31:19;;;;;;;9.38;5.80;;;18.70;99.90;;;;;;4994378;28;20187;-86
2023/06/02 11:33:49;;;;;;;12.07;5.88;;;18.60;99.90;;;;;;4995972;28;20176;-86
2023/06/02 11:36:25;;;;;;;14.45;6.40;;;18.50;99.90;;;;;;4995723;28;20212;-86
2023/06/02 11:39:00;;;;;;;11.75;6.18;;;18.40;99.90;;;;;;4995886;28;20167;-85
2023/06/02 11:41:25;;;;;;;10.60;5.95;;;18.50;99.90;;;;;;4995665;28;20176;-85
2023/06/02 11:44:03;;;;;;;14.38;5.80;;;18.70;99.90;;;;;;4994893;28;20172;-86
2023/06/02 11:46:28;;;;;;;11.88;6.25;;;18.80;99.90;;;;;;4995274;28;20223;-86
2023/06/02 11:48:54;;;;;;;14.80;6.03;;;18.80;99.90;;;;;;4995724;28;20657;-86
2023/06/02 11:51:20;;;;;;;11.38;6.20;;;18.80;99.90;;;;;;4997183;28;20248;-85
2023/06/02 11:53:58;;;;;;;11.15;6.88;;;18.90;99.90;;;;;;4996873;28;20650;-84
2023/06/02 11:56:25;;;;;;;15.18;6.38;;;18.70;99.90;;;;;;4996328;28;20222;-84
2023/06/02 11:58:51;;;;;;;12.18;5.85;;;18.70;99.90;;;;;;4996638;28;20152;-85
2023/06/02 12:01:19;;;;;;;11.85;5.80;;;18.70;99.90;;;;;;4996038;28;20579;-85
2023/06/02 12:04:05;;;;;;;10.15;6.15;;;18.70;99.90;;;;;;4996258;28;20260;-86
2023/06/02 12:06:36;;;;;;;14.38;5.47;;;18.40;99.90;;;;;;4996229;28;20215;-84
2023/06/02 12:09:17;;;;;;;17.15;5.38;;;18.20;99.90;;;;;;4996744;28;20172;-85
2023/06/02 12:11:47;;;;;;;16.15;6.10;;;18.50;99.90;;;;;;4998498;28;20169;-86
2023/06/02 12:14:16;;;;;;;13.70;5.20;;;18.90;99.90;;;;;;4998199;28;20176;-87
2023/06/02 12:16:43;;;;;;;7.55;4.28;;;19.30;99.90;;;;;;4999707;28;20239;-86
2023/06/02 12:19:13;;;;;;;11.73;5.22;;;20.00;99.90;;;;;;4999107;28;20594;-86
2023/06/02 12:21:40;;;;;;;9.93;5.57;;;20.20;99.90;;;;;;4998887;28;20184;-86
2023/06/02 12:24:06;;;;;;;11.77;6.22;;;19.90;99.90;;;;;;5000355;28;20177;-86
2023/06/02 12:26:42;;;;;;;11.18;5.82;;;19.50;99.90;;;;;;4999314;28;20200;-85
2023/06/02 12:29:13;;;;;;;14.30;5.93;;;19.20;99.90;;;;;;5000805;28;20175;-86
2023/06/02 12:31:39;;;;;;;14.75;6.07;;;18.80;99.90;;;;;;5000544;28;20550;-86
2023/06/02 12:34:07;;;;;;;13.30;5.45;;;18.60;99.90;;;;;;4998799;28;20185;-87
2023/06/02 12:36:33;;;;;;;15.38;5.93;;;18.50;99.90;;;;;;4997564;28;20222;-87
2023/06/02 12:39:00;;;;;;;16.65;5.95;;;18.50;99.90;;;;;;4997862;28;20176;-86
2023/06/02 12:41:26;;;;;;;13.32;5.45;;;18.90;99.90;;;;;;4997323;28;20207;-87